Time;durP1;ratioP1;P1;durP2;ratioP2;P2;SDS_P1;SDS_P2;PMS_P1;PMS_P2;Temp;Humidity;BMP_temperature;BMP_pressure;BME280_temperature;BME280_humidity;BME280_pressure;Samples;Min_cycle;Max_cycle;Signal;HPM_P1;HPM_P2
2022/01/08 00:01:36;;;;;;;28.17;10.23;;;-1.40;99.90;;;;;;5140268;27;20157;-68
2022/01/08 00:04:03;;;;;;;21.80;9.77;;;-1.40;99.90;;;;;;5158836;27;20158;-67
2022/01/08 00:06:31;;;;;;;24.20;9.73;;;-1.40;99.90;;;;;;5141680;27;20136;-67
2022/01/08 00:08:59;;;;;;;22.23;9.67;;;-1.40;99.90;;;;;;5140181;27;20175;-67
2022/01/08 00:11:27;;;;;;;23.03;9.70;;;-1.40;99.90;;;;;;5141325;27;20148;-67
2022/01/08 00:13:55;;;;;;;19.57;9.07;;;-1.40;99.90;;;;;;5139738;27;20179;-67
2022/01/08 00:16:22;;;;;;;25.67;9.30;;;-1.40;99.90;;;;;;5141746;27;20179;-67
2022/01/08 00:18:50;;;;;;;22.50;9.40;;;-1.40;99.90;;;;;;5139761;27;20143;-67
2022/01/08 00:21:18;;;;;;;22.87;9.73;;;-1.40;99.90;;;;;;5140018;27;20164;-67
2022/01/08 00:23:45;;;;;;;27.40;10.53;;;-1.40;99.90;;;;;;5139905;27;20143;-67
2022/01/08 00:26:12;;;;;;;25.33;9.97;;;-1.40;99.90;;;;;;5158554;27;20203;-67
2022/01/08 00:28:40;;;;;;;25.07;9.33;;;-1.40;99.90;;;;;;5157066;27;20160;-67
2022/01/08 00:31:10;;;;;;;25.20;9.80;;;-1.40;99.90;;;;;;5141006;27;20164;-67
2022/01/08 00:33:38;;;;;;;28.33;9.83;;;-1.40;99.90;;;;;;5157323;27;20200;-67
2022/01/08 00:36:06;;;;;;;23.00;10.00;;;-1.50;99.90;;;;;;5158168;27;20186;-67
2022/01/08 00:38:33;;;;;;;21.97;9.40;;;-1.40;99.90;;;;;;5156297;27;20375;-67
2022/01/08 00:41:01;;;;;;;24.33;10.20;;;-1.50;99.90;;;;;;5159488;27;20424;-67
2022/01/08 00:43:28;;;;;;;29.43;10.53;;;-1.50;99.90;;;;;;5139494;27;20494;-67
2022/01/08 00:45:55;;;;;;;26.87;10.37;;;-1.50;99.90;;;;;;5160080;27;20166;-67
2022/01/08 00:48:23;;;;;;;22.50;9.20;;;-1.50;99.90;;;;;;5159907;27;20134;-67
2022/01/08 00:50:52;;;;;;;25.70;9.90;;;-1.50;99.90;;;;;;5158837;27;20336;-67
2022/01/08 00:53:26;;;;;;;25.53;10.50;;;-1.60;99.90;;;;;;5158921;27;20167;-67
2022/01/08 00:55:54;;;;;;;26.83;9.60;;;-1.60;99.90;;;;;;5157556;27;20140;-68
2022/01/08 00:58:21;;;;;;;24.53;10.20;;;-1.70;99.90;;;;;;5160367;27;20108;-67
2022/01/08 01:00:49;;;;;;;23.80;9.97;;;-1.70;99.90;;;;;;5157037;27;20491;-67
2022/01/08 01:03:16;;;;;;;24.00;10.00;;;-1.70;99.90;;;;;;5140621;27;20200;-67
2022/01/08 01:05:44;;;;;;;26.63;10.50;;;-1.80;99.90;;;;;;5141281;27;20158;-67
2022/01/08 01:08:12;;;;;;;25.00;10.33;;;-1.80;99.90;;;;;;5157851;27;20144;-67
2022/01/08 01:10:40;;;;;;;26.47;9.90;;;-1.90;99.90;;;;;;5156912;27;20372;-67
2022/01/08 01:13:07;;;;;;;24.37;9.87;;;-1.90;99.90;;;;;;5139680;27;20155;-67
2022/01/08 01:15:35;;;;;;;25.57;10.23;;;-1.90;99.90;;;;;;5158203;27;20127;-67
2022/01/08 01:18:02;;;;;;;24.50;10.53;;;-2.00;99.90;;;;;;5157692;27;20393;-66
2022/01/08 01:20:30;;;;;;;23.70;10.23;;;-2.00;99.90;;;;;;5140303;27;20151;-67
2022/01/08 01:23:11;;;;;;;25.27;10.10;;;-2.10;99.90;;;;;;5139886;27;20140;-67
2022/01/08 01:26:04;;;;;;;25.00;10.57;;;-2.10;99.90;;;;;;5139101;27;20202;-67
2022/01/08 01:42:39;;;;;;;22.67;10.37;;;-2.20;99.90;;;;;;5139526;27;20461;-67
2022/01/08 01:47:56;;;;;;;25.33;10.50;;;-2.30;99.90;;;;;;5140628;27;20148;-66
2022/01/08 01:50:24;;;;;;;25.43;10.43;;;-2.30;99.90;;;;;;5139595;27;20148;-67
2022/01/08 01:52:51;;;;;;;26.50;10.47;;;-2.30;99.90;;;;;;5139972;27;20175;-67
2022/01/08 01:55:18;;;;;;;26.30;10.90;;;-2.40;99.90;;;;;;5157958;27;20546;-67
2022/01/08 01:57:48;;;;;;;24.47;10.70;;;-2.40;99.90;;;;;;5158619;27;20143;-67
2022/01/08 02:00:15;;;;;;;24.07;10.93;;;-2.40;99.90;;;;;;5158083;27;20354;-67
2022/01/08 02:02:42;;;;;;;25.00;10.60;;;-2.50;99.90;;;;;;5139345;27;20469;-67
2022/01/08 02:05:10;;;;;;;27.93;10.60;;;-2.40;99.90;;;;;;5139069;27;20181;-67
2022/01/08 02:07:37;;;;;;;28.07;11.10;;;-2.50;99.90;;;;;;5140856;27;20152;-67
2022/01/08 02:10:06;;;;;;;26.97;10.93;;;-2.50;99.90;;;;;;5158908;27;20152;-66
2022/01/08 02:12:33;;;;;;;24.50;10.40;;;-2.50;99.90;;;;;;5139413;27;20144;-67
2022/01/08 02:15:02;;;;;;;26.57;10.23;;;-2.60;99.90;;;;;;5140195;27;20168;-66
2022/01/08 02:17:29;;;;;;;24.90;10.53;;;-2.60;99.90;;;;;;5139324;27;20192;-67
2022/01/08 02:19:57;;;;;;;26.00;10.50;;;-2.60;99.90;;;;;;5157924;27;20125;-67
2022/01/08 02:22:24;;;;;;;29.47;10.83;;;-2.60;99.90;;;;;;5158873;27;20128;-67
2022/01/08 02:24:51;;;;;;;29.53;10.97;;;-2.60;99.90;;;;;;5156676;27;20140;-67
2022/01/08 02:27:19;;;;;;;25.37;10.60;;;-2.70;99.90;;;;;;5139086;27;20195;-67
2022/01/08 02:29:46;;;;;;;27.33;10.57;;;-2.70;99.90;;;;;;5140043;27;20137;-67
2022/01/08 02:32:18;;;;;;;29.03;11.47;;;-2.70;99.90;;;;;;5139869;27;20159;-67
2022/01/08 02:34:47;;;;;;;26.20;10.57;;;-2.70;99.90;;;;;;5158731;27;20139;-67
2022/01/08 02:37:17;;;;;;;25.50;10.57;;;-2.70;99.90;;;;;;5159152;27;20131;-67
2022/01/08 02:39:48;;;;;;;27.23;11.10;;;-2.80;99.90;;;;;;5158213;27;20120;-67
2022/01/08 02:42:19;;;;;;;27.77;10.90;;;-2.80;99.90;;;;;;5156954;27;20140;-66
2022/01/08 02:44:48;;;;;;;24.60;10.63;;;-2.80;99.90;;;;;;5140571;27;20171;-67
2022/01/08 02:47:20;;;;;;;26.57;10.23;;;-2.80;99.90;;;;;;5139214;27;20159;-67
2022/01/08 02:49:52;;;;;;;26.43;10.60;;;-2.80;99.90;;;;;;5159187;27;20358;-66
2022/01/08 02:52:23;;;;;;;25.40;10.33;;;-2.80;99.90;;;;;;5156790;27;20179;-67
2022/01/08 02:54:50;;;;;;;28.70;10.50;;;-2.80;99.90;;;;;;5140270;27;20483;-67
2022/01/08 02:57:17;;;;;;;27.43;10.53;;;-2.90;99.90;;;;;;5141343;27;20149;-66
2022/01/08 02:59:44;;;;;;;23.87;10.43;;;-2.90;99.90;;;;;;5157518;27;20144;-67
2022/01/08 03:02:12;;;;;;;25.53;10.63;;;-2.90;99.90;;;;;;5140071;27;20180;-68
2022/01/08 03:04:40;;;;;;;25.70;10.53;;;-2.90;99.90;;;;;;5157599;27;20189;-66
2022/01/08 03:07:08;;;;;;;25.87;10.67;;;-2.90;99.90;;;;;;5140878;27;20137;-66
2022/01/08 03:09:40;;;;;;;30.50;10.80;;;-3.00;99.90;;;;;;5159782;27;20154;-67
2022/01/08 03:12:08;;;;;;;24.23;10.33;;;-3.00;99.90;;;;;;5157701;27;20153;-67
2022/01/08 03:14:36;;;;;;;27.87;11.10;;;-3.00;99.90;;;;;;5159275;27;20487;-67
2022/01/08 03:17:04;;;;;;;26.70;10.60;;;-3.00;99.90;;;;;;5159752;27;20162;-67
2022/01/08 03:19:34;;;;;;;28.13;10.80;;;-3.10;99.90;;;;;;5141234;27;20154;-66
2022/01/08 03:22:03;;;;;;;27.30;10.73;;;-3.10;99.90;;;;;;5140708;27;20168;-67
2022/01/08 03:24:31;;;;;;;26.67;11.20;;;-3.20;99.90;;;;;;5159258;27;20406;-67
2022/01/08 03:26:59;;;;;;;29.60;11.33;;;-3.20;99.90;;;;;;5159413;27;20156;-66
2022/01/08 03:29:26;;;;;;;28.77;11.90;;;-3.20;99.90;;;;;;5139810;27;20144;-67
2022/01/08 03:31:54;;;;;;;26.87;11.13;;;-3.20;99.90;;;;;;5140852;27;20147;-67
2022/01/08 03:34:21;;;;;;;24.43;10.80;;;-3.20;99.90;;;;;;5158778;27;20175;-67
2022/01/08 03:36:49;;;;;;;32.93;12.63;;;-3.30;99.90;;;;;;5160496;27;20119;-67
2022/01/08 03:39:17;;;;;;;32.87;11.80;;;-3.30;99.90;;;;;;5159580;27;20134;-67
2022/01/08 03:41:45;;;;;;;31.73;11.77;;;-3.40;99.90;;;;;;5141156;27;20178;-67
2022/01/08 03:44:13;;;;;;;27.47;11.57;;;-3.40;99.90;;;;;;5157089;27;20162;-66
2022/01/08 03:46:40;;;;;;;28.47;10.80;;;-3.40;99.90;;;;;;5140627;27;20542;-66
2022/01/08 03:51:37;;;;;;;29.27;12.17;;;-3.40;99.90;;;;;;5157993;27;20204;-67
2022/01/08 03:54:04;;;;;;;28.43;11.43;;;-3.40;99.90;;;;;;5159253;27;20115;-66
2022/01/08 03:56:31;;;;;;;26.77;11.17;;;-3.40;99.90;;;;;;5158462;27;20179;-66
2022/01/08 03:58:58;;;;;;;26.23;11.20;;;-3.50;99.90;;;;;;5140636;27;20138;-67
2022/01/08 04:01:26;;;;;;;30.53;11.30;;;-3.60;99.90;;;;;;5140703;27;20154;-67
2022/01/08 04:03:53;;;;;;;31.30;12.17;;;-3.60;99.90;;;;;;5156646;27;20184;-66
2022/01/08 04:06:20;;;;;;;31.77;12.03;;;-3.60;99.90;;;;;;5140748;27;20494;-66
2022/01/08 04:08:47;;;;;;;32.03;11.77;;;-3.60;99.90;;;;;;5159540;27;20135;-66
2022/01/08 04:11:14;;;;;;;28.80;11.20;;;-3.70;99.90;;;;;;5158931;27;20163;-66
2022/01/08 04:13:45;;;;;;;26.60;11.37;;;-3.70;99.90;;;;;;5140629;27;20200;-67
2022/01/08 04:16:17;;;;;;;27.40;11.40;;;-3.70;99.90;;;;;;5140304;27;20148;-67
2022/01/08 04:18:44;;;;;;;27.27;11.40;;;-3.70;99.90;;;;;;5139678;27;20172;-66
2022/01/08 04:23:50;;;;;;;29.93;11.67;;;-3.70;99.90;;;;;;5158420;27;20534;-66
2022/01/08 04:26:17;;;;;;;30.13;11.87;;;-3.70;99.90;;;;;;5139657;27;20219;-67
2022/01/08 04:28:44;;;;;;;27.53;11.83;;;-3.80;99.90;;;;;;5158464;27;20147;-67
2022/01/08 04:31:11;;;;;;;29.67;11.87;;;-3.80;99.90;;;;;;5158310;27;20389;-67
2022/01/08 04:33:38;;;;;;;33.43;11.77;;;-3.80;99.90;;;;;;5139782;27;20156;-66
2022/01/08 04:36:05;;;;;;;31.23;11.23;;;-3.80;99.90;;;;;;5159006;27;20134;-67
2022/01/08 04:38:32;;;;;;;30.73;12.13;;;-3.80;99.90;;;;;;5157223;27;20155;-67
2022/01/08 04:41:00;;;;;;;32.27;12.10;;;-3.80;99.90;;;;;;5139549;27;20153;-67
2022/01/08 04:43:30;;;;;;;28.43;11.67;;;-3.90;99.90;;;;;;5141548;27;20198;-66
2022/01/08 04:45:57;;;;;;;29.17;11.20;;;-3.90;99.90;;;;;;5157476;27;20449;-67
2022/01/08 04:48:24;;;;;;;28.83;12.07;;;-3.90;99.90;;;;;;5141841;27;20206;-67
2022/01/08 04:50:51;;;;;;;27.43;11.70;;;-4.00;99.90;;;;;;5140030;27;20533;-66
2022/01/08 04:53:18;;;;;;;27.90;11.83;;;-4.00;99.90;;;;;;5160565;27;20116;-66
2022/01/08 04:55:45;;;;;;;25.97;11.57;;;-4.00;99.90;;;;;;5158730;27;20123;-67
2022/01/08 04:58:13;;;;;;;27.87;11.93;;;-4.00;99.90;;;;;;5157332;27;20166;-67
2022/01/08 05:00:40;;;;;;;29.43;11.10;;;-3.90;99.90;;;;;;5124181;27;20182;-67
2022/01/08 05:03:07;;;;;;;30.67;12.33;;;-4.00;99.90;;;;;;5139153;27;20538;-67
2022/01/08 05:05:34;;;;;;;29.23;11.93;;;-4.00;99.90;;;;;;5157391;27;20375;-66
2022/01/08 05:08:05;;;;;;;27.30;11.10;;;-4.10;99.90;;;;;;5159333;27;20455;-66
2022/01/08 05:10:33;;;;;;;30.00;11.63;;;-4.10;99.90;;;;;;5156712;27;20491;-67
2022/01/08 05:13:04;;;;;;;28.03;11.30;;;-4.00;99.90;;;;;;5159411;27;20369;-67
2022/01/08 05:15:32;;;;;;;31.80;12.30;;;-4.00;99.90;;;;;;5139623;27;20159;-67
2022/01/08 05:18:05;;;;;;;30.13;11.67;;;-4.00;99.90;;;;;;5158980;27;20116;-67
2022/01/08 05:20:36;;;;;;;28.93;11.63;;;-4.00;99.90;;;;;;5139692;27;20187;-66
2022/01/08 05:23:04;;;;;;;27.33;11.67;;;-4.10;99.90;;;;;;5139366;27;20495;-67
2022/01/08 05:25:32;;;;;;;28.47;11.63;;;-4.00;99.90;;;;;;5151835;27;20119;-67
2022/01/08 05:27:59;;;;;;;32.97;12.47;;;-4.10;99.90;;;;;;5140812;27;20148;-67
2022/01/08 05:30:27;;;;;;;24.87;10.80;;;-4.10;99.90;;;;;;5139587;27;20183;-66
2022/01/08 05:32:55;;;;;;;28.00;11.40;;;-4.10;99.90;;;;;;5158624;27;20152;-67
2022/01/08 05:35:24;;;;;;;28.27;10.90;;;-4.10;99.90;;;;;;5158538;27;20144;-66
2022/01/08 05:37:53;;;;;;;28.80;11.03;;;-4.10;99.90;;;;;;5140624;27;20147;-67
2022/01/08 05:40:20;;;;;;;29.43;11.50;;;-4.20;99.90;;;;;;5139549;27;20579;-67
2022/01/08 05:42:48;;;;;;;28.53;10.97;;;-4.20;99.90;;;;;;5157032;27;20229;-66
2022/01/08 05:45:15;;;;;;;27.57;10.93;;;-4.20;99.90;;;;;;5158425;27;20136;-67
2022/01/08 05:47:43;;;;;;;31.40;11.70;;;-4.20;99.90;;;;;;5156986;27;20178;-67
2022/01/08 05:50:11;;;;;;;28.67;11.07;;;-4.20;99.90;;;;;;5156587;27;20164;-67
2022/01/08 05:52:38;;;;;;;26.47;11.10;;;-4.20;99.90;;;;;;5157522;27;20167;-67
2022/01/08 05:55:06;;;;;;;26.37;11.03;;;-4.20;99.90;;;;;;5157987;27;20491;-67
2022/01/08 05:57:34;;;;;;;29.47;11.77;;;-4.20;99.90;;;;;;5158067;27;20151;-66
2022/01/08 06:00:03;;;;;;;27.93;11.27;;;-4.20;99.90;;;;;;5140129;27;20156;-67
2022/01/08 06:02:30;;;;;;;31.67;11.50;;;-4.20;99.90;;;;;;5156631;27;20184;-66
2022/01/08 06:04:57;;;;;;;26.53;10.50;;;-4.20;99.90;;;;;;5158906;27;20123;-67
2022/01/08 06:07:24;;;;;;;28.70;11.27;;;-4.30;99.90;;;;;;5140070;27;20470;-66
2022/01/08 06:09:52;;;;;;;25.90;10.53;;;-4.30;99.90;;;;;;5159032;27;20447;-67
2022/01/08 06:12:19;;;;;;;29.40;11.80;;;-4.30;99.90;;;;;;5139889;27;20424;-66
2022/01/08 06:14:46;;;;;;;27.33;11.30;;;-4.30;99.90;;;;;;5138971;27;20166;-67
2022/01/08 06:17:13;;;;;;;31.23;11.20;;;-4.30;99.90;;;;;;5156461;27;20517;-66
2022/01/08 06:19:40;;;;;;;29.10;11.40;;;-4.40;99.90;;;;;;5156705;27;20525;-66
2022/01/08 06:22:07;;;;;;;31.57;12.00;;;-4.40;99.90;;;;;;5153223;27;20184;-67
2022/01/08 06:24:34;;;;;;;28.03;11.73;;;-4.40;99.90;;;;;;5157076;27;20386;-66
2022/01/08 06:27:02;;;;;;;26.40;11.10;;;-4.40;99.90;;;;;;5139126;27;20163;-67
2022/01/08 06:29:29;;;;;;;27.60;11.40;;;-4.40;99.90;;;;;;5159604;27;20155;-66
2022/01/08 06:31:56;;;;;;;29.20;10.73;;;-4.40;99.90;;;;;;5141146;27;20144;-66
2022/01/08 06:34:23;;;;;;;30.57;11.60;;;-4.40;99.90;;;;;;5141534;27;20391;-66
2022/01/08 06:36:50;;;;;;;31.50;12.13;;;-4.50;99.90;;;;;;5141498;27;20151;-66
2022/01/08 06:39:18;;;;;;;28.53;11.40;;;-4.50;99.90;;;;;;5159840;27;20127;-66
2022/01/08 06:41:45;;;;;;;26.63;11.70;;;-4.50;99.90;;;;;;5158325;27;20144;-66
2022/01/08 06:44:12;;;;;;;28.53;11.07;;;-4.50;99.90;;;;;;5157183;27;20194;-66
2022/01/08 06:46:40;;;;;;;28.87;11.20;;;-4.40;99.90;;;;;;5159285;27;20136;-66
2022/01/08 06:49:08;;;;;;;26.43;11.57;;;-4.50;99.90;;;;;;5140917;27;20144;-68
2022/01/08 06:51:36;;;;;;;28.87;11.27;;;-4.50;99.90;;;;;;5140747;27;20187;-66
2022/01/08 06:54:03;;;;;;;26.83;11.40;;;-4.50;99.90;;;;;;5140441;27;20148;-66
2022/01/08 06:56:30;;;;;;;26.07;11.43;;;-4.50;99.90;;;;;;5159013;27;20136;-67
2022/01/08 06:58:57;;;;;;;31.87;12.00;;;-4.50;99.90;;;;;;5158022;27;20150;-67
2022/01/08 07:01:25;;;;;;;23.23;10.60;;;-4.50;99.90;;;;;;5140487;27;20152;-67
2022/01/08 07:03:52;;;;;;;29.77;11.30;;;-4.50;99.90;;;;;;5157331;27;20204;-68
2022/01/08 07:06:19;;;;;;;26.53;10.37;;;-4.50;99.90;;;;;;5157834;27;20533;-68
2022/01/08 07:08:50;;;;;;;28.43;11.43;;;-4.40;99.90;;;;;;5159247;27;20166;-67
2022/01/08 07:11:17;;;;;;;27.30;11.77;;;-4.50;99.90;;;;;;5157011;27;20147;-68
2022/01/08 07:13:44;;;;;;;24.77;11.10;;;-4.40;99.90;;;;;;5139959;27;20152;-67
2022/01/08 07:16:12;;;;;;;23.63;10.53;;;-4.40;99.90;;;;;;5140636;27;20162;-66
2022/01/08 07:18:39;;;;;;;28.63;11.60;;;-4.40;99.90;;;;;;5157202;27;20152;-67
2022/01/08 07:21:06;;;;;;;27.43;11.33;;;-4.40;99.90;;;;;;5158672;27;20164;-67
2022/01/08 07:23:33;;;;;;;26.00;11.00;;;-4.40;99.90;;;;;;5159268;27;20120;-67
2022/01/08 07:26:00;;;;;;;25.80;11.27;;;-4.40;99.90;;;;;;5157864;27;20160;-67
2022/01/08 07:28:27;;;;;;;27.37;10.83;;;-4.40;99.90;;;;;;5157358;27;20252;-67
2022/01/08 07:30:57;;;;;;;28.87;12.27;;;-4.30;99.90;;;;;;5157795;27;20151;-67
2022/01/08 07:33:24;;;;;;;25.57;11.03;;;-4.30;99.90;;;;;;5159070;27;20164;-67
2022/01/08 07:35:51;;;;;;;30.87;11.93;;;-4.30;99.90;;;;;;5158052;27;20190;-67
2022/01/08 07:38:18;;;;;;;30.70;11.63;;;-4.30;99.90;;;;;;5157051;27;20195;-67
2022/01/08 07:40:50;;;;;;;29.40;11.80;;;-4.30;99.90;;;;;;5159947;27;20120;-67
2022/01/08 07:43:19;;;;;;;32.23;11.40;;;-4.20;99.90;;;;;;5139938;27;20163;-67
2022/01/08 07:45:47;;;;;;;29.40;11.27;;;-4.10;99.90;;;;;;5159016;27;20116;-67
2022/01/08 07:48:15;;;;;;;26.67;11.40;;;-4.10;99.90;;;;;;5158213;27;20454;-67
2022/01/08 07:50:42;;;;;;;25.67;11.07;;;-4.00;99.90;;;;;;5157850;27;20136;-67
2022/01/08 07:53:10;;;;;;;27.13;11.27;;;-4.00;99.90;;;;;;5158934;27;20131;-67
2022/01/08 07:55:37;;;;;;;24.30;11.03;;;-3.90;99.90;;;;;;5139834;27;20167;-67
2022/01/08 07:58:04;;;;;;;26.00;11.13;;;-3.70;99.90;;;;;;5157031;27;20144;-67
2022/01/08 08:00:32;;;;;;;25.23;11.00;;;-3.40;99.90;;;;;;5159495;27;20172;-67
2022/01/08 08:02:59;;;;;;;26.27;11.03;;;-3.10;99.90;;;;;;5139941;27;20233;-67
2022/01/08 08:05:27;;;;;;;25.50;11.13;;;-2.80;99.90;;;;;;5159284;27;20116;-67
2022/01/08 08:07:55;;;;;;;24.23;10.70;;;-2.50;99.90;;;;;;5140432;27;20195;-67
2022/01/08 08:10:25;;;;;;;27.03;11.37;;;-2.30;99.90;;;;;;5140919;27;20183;-67
2022/01/08 08:12:55;;;;;;;25.10;11.43;;;-2.20;99.90;;;;;;5158515;27;20182;-67
2022/01/08 08:15:23;;;;;;;24.37;10.90;;;-2.00;99.90;;;;;;5139653;27;20174;-67
2022/01/08 08:17:50;;;;;;;25.20;11.67;;;-1.90;99.90;;;;;;5159463;27;20123;-67
2022/01/08 08:20:20;;;;;;;25.73;11.23;;;-1.90;99.90;;;;;;5157234;27;20159;-67
2022/01/08 08:22:48;;;;;;;24.17;10.67;;;-1.90;99.90;;;;;;5159131;27;20114;-67
2022/01/08 08:25:15;;;;;;;25.23;11.00;;;-1.70;99.90;;;;;;5139796;27;20491;-67
2022/01/08 08:27:43;;;;;;;28.63;11.93;;;-1.60;99.90;;;;;;5158214;27;20430;-67
2022/01/08 08:30:11;;;;;;;26.97;11.50;;;-1.50;99.90;;;;;;5158341;27;20121;-67
2022/01/08 08:32:39;;;;;;;25.43;11.27;;;-1.20;99.90;;;;;;5139578;27;20523;-67
2022/01/08 08:35:10;;;;;;;28.50;11.50;;;-0.80;99.90;;;;;;5158661;27;20119;-67
2022/01/08 08:37:38;;;;;;;25.03;11.57;;;-0.70;99.90;;;;;;5156951;27;20147;-67
2022/01/08 08:40:10;;;;;;;26.07;10.73;;;-0.70;99.90;;;;;;5161092;27;20147;-67
2022/01/08 08:42:37;;;;;;;26.80;11.37;;;-0.60;99.90;;;;;;5158133;27;20527;-68
2022/01/08 08:45:07;;;;;;;29.00;11.30;;;-0.60;99.90;;;;;;5155750;27;20147;-67
2022/01/08 08:47:34;;;;;;;28.43;11.73;;;-0.70;99.90;;;;;;5139828;27;20198;-67
2022/01/08 08:50:03;;;;;;;30.20;11.80;;;-0.60;99.90;;;;;;5159477;27;20143;-67
2022/01/08 08:52:30;;;;;;;27.90;11.13;;;-0.70;99.90;;;;;;5139742;27;20423;-67
2022/01/08 08:54:57;;;;;;;24.83;10.73;;;-0.80;99.90;;;;;;5157610;27;20152;-67
2022/01/08 08:57:25;;;;;;;26.53;11.73;;;-0.80;99.90;;;;;;5139839;27;20171;-67
2022/01/08 08:59:54;;;;;;;29.83;10.87;;;-1.00;99.90;;;;;;5156543;27;20207;-67
2022/01/08 09:02:22;;;;;;;26.80;11.03;;;-1.10;99.90;;;;;;5159220;27;20412;-67
2022/01/08 09:04:50;;;;;;;27.70;11.13;;;-1.20;99.90;;;;;;5140399;27;20143;-67
2022/01/08 09:07:18;;;;;;;28.80;11.77;;;-1.40;99.90;;;;;;5139186;27;20179;-67
2022/01/08 09:09:45;;;;;;;25.20;10.90;;;-1.40;99.90;;;;;;5157284;27;20152;-67
2022/01/08 09:12:15;;;;;;;24.80;10.93;;;-1.40;99.90;;;;;;5158344;27;20521;-67
2022/01/08 09:14:43;;;;;;;26.90;11.30;;;-1.40;99.90;;;;;;5139394;27;20160;-67
2022/01/08 09:17:12;;;;;;;29.37;11.33;;;-1.50;99.90;;;;;;5139681;27;20188;-68
2022/01/08 09:19:39;;;;;;;26.47;11.03;;;-1.50;99.90;;;;;;5158871;27;20132;-67
2022/01/08 09:22:06;;;;;;;28.27;11.70;;;-1.50;99.90;;;;;;5141243;27;20148;-67
2022/01/08 09:24:36;;;;;;;27.90;11.47;;;-1.50;99.90;;;;;;5156975;27;20147;-67
2022/01/08 09:27:04;;;;;;;25.80;10.67;;;-1.50;99.90;;;;;;5139674;27;20581;-68
2022/01/08 09:29:32;;;;;;;27.80;11.63;;;-1.30;99.90;;;;;;5157036;27;20215;-68
2022/01/08 09:31:59;;;;;;;25.67;11.30;;;-1.30;99.90;;;;;;5156242;27;20151;-67
2022/01/08 09:34:26;;;;;;;25.97;11.30;;;-1.20;99.90;;;;;;5139182;27;20171;-67
2022/01/08 09:36:54;;;;;;;26.30;10.90;;;-1.30;99.90;;;;;;5139244;27;20541;-67
2022/01/08 09:39:21;;;;;;;26.10;11.40;;;-1.20;99.90;;;;;;5158563;27;20318;-68
2022/01/08 09:41:48;;;;;;;24.10;11.47;;;-1.00;99.90;;;;;;5157205;27;20180;-68
2022/01/08 09:44:15;;;;;;;27.97;11.57;;;-1.10;99.90;;;;;;5157051;27;20228;-68
2022/01/08 09:46:45;;;;;;;24.87;10.83;;;-1.10;99.90;;;;;;5157347;27;20156;-67
2022/01/08 09:49:13;;;;;;;26.77;11.63;;;-1.00;99.90;;;;;;5139455;27;20160;-67
2022/01/08 09:51:40;;;;;;;27.03;11.53;;;-1.00;99.90;;;;;;5138852;27;20159;-67
2022/01/08 09:54:08;;;;;;;22.63;11.20;;;-1.00;99.90;;;;;;5158868;27;20119;-68
2022/01/08 09:56:35;;;;;;;24.80;11.13;;;-1.10;99.90;;;;;;5139036;27;20147;-68
2022/01/08 09:59:02;;;;;;;24.97;11.43;;;-1.20;99.90;;;;;;5139493;27;20292;-68
2022/01/08 10:01:30;;;;;;;28.10;11.70;;;-1.10;99.90;;;;;;5156255;27;20148;-67
2022/01/08 10:04:00;;;;;;;27.43;11.73;;;-1.20;99.90;;;;;;5158473;27;20148;-67
2022/01/08 10:06:30;;;;;;;28.40;11.50;;;-1.30;99.90;;;;;;5140984;27;20202;-67
2022/01/08 10:08:57;;;;;;;28.50;12.10;;;-1.20;99.90;;;;;;5141043;27;20453;-68
2022/01/08 10:11:28;;;;;;;26.10;11.13;;;-1.10;99.90;;;;;;5140421;27;20148;-68
2022/01/08 10:14:14;;;;;;;32.70;11.87;;;-1.00;99.90;;;;;;5157810;27;20529;-68
2022/01/08 10:19:31;;;;;;;27.77;11.97;;;-0.90;99.90;;;;;;5140176;27;20148;-68
2022/01/08 10:22:01;;;;;;;29.73;12.30;;;-0.90;99.90;;;;;;5156796;27;20155;-67
2022/01/08 10:24:29;;;;;;;31.57;12.27;;;-0.90;99.90;;;;;;5157642;27;20144;-68
2022/01/08 10:27:06;;;;;;;24.90;11.10;;;-0.90;99.90;;;;;;5159011;27;20145;-68
2022/01/08 10:29:44;;;;;;;26.83;11.70;;;-0.80;99.90;;;;;;5140790;27;20173;-67
2022/01/08 10:32:14;;;;;;;26.40;11.30;;;-0.80;99.90;;;;;;5141135;27;20461;-68
2022/01/08 10:34:49;;;;;;;27.83;12.07;;;-0.70;99.90;;;;;;5139468;27;20202;-68
2022/01/08 10:37:16;;;;;;;28.70;11.97;;;-0.70;99.90;;;;;;5139930;27;20152;-68
2022/01/08 10:39:53;;;;;;;25.27;12.17;;;-0.70;99.90;;;;;;5140949;27;20495;-68
2022/01/08 10:42:21;;;;;;;27.03;12.27;;;-0.50;99.90;;;;;;5140560;27;20151;-69
2022/01/08 10:44:50;;;;;;;25.77;11.77;;;-0.50;99.90;;;;;;5159148;27;20174;-67
2022/01/08 10:47:21;;;;;;;26.80;12.10;;;-0.50;99.90;;;;;;5140129;27;20163;-68
2022/01/08 10:50:05;;;;;;;28.47;12.40;;;-0.50;99.90;;;;;;5140031;27;20520;-67
2022/01/08 10:52:46;;;;;;;28.67;11.80;;;-0.50;99.90;;;;;;5141240;27;20127;-68
2022/01/08 10:55:14;;;;;;;26.67;11.60;;;-0.40;99.90;;;;;;5140083;27;20425;-68
2022/01/08 10:57:46;;;;;;;26.53;12.03;;;-0.30;99.90;;;;;;5140294;27;20139;-68
2022/01/08 11:00:15;;;;;;;24.70;11.87;;;-0.20;99.90;;;;;;5140291;27;20140;-69
2022/01/08 11:02:47;;;;;;;31.33;12.53;;;-0.20;99.90;;;;;;5140749;27;20148;-68
2022/01/08 11:05:17;;;;;;;27.73;12.10;;;-0.40;99.90;;;;;;5140080;27;20470;-68
2022/01/08 11:07:45;;;;;;;26.47;12.43;;;-0.30;99.90;;;;;;5139456;27;20174;-69
2022/01/08 11:10:22;;;;;;;29.07;12.23;;;-0.30;99.90;;;;;;5140563;27;20147;-68
2022/01/08 11:12:51;;;;;;;28.53;12.13;;;-0.20;99.90;;;;;;5140505;27;20194;-68
2022/01/08 11:15:34;;;;;;;25.33;11.80;;;0.00;99.90;;;;;;5139523;27;20151;-68
2022/01/08 11:18:02;;;;;;;27.77;12.93;;;0.10;99.90;;;;;;5159457;27;20170;-69
2022/01/08 11:20:51;;;;;;;24.93;12.33;;;0.20;99.90;;;;;;5156839;27;20148;-68
2022/01/08 11:23:23;;;;;;;23.83;11.93;;;0.10;99.90;;;;;;5142147;27;20142;-68
2022/01/08 11:25:51;;;;;;;30.33;12.23;;;0.00;99.90;;;;;;5141121;27;20163;-68
2022/01/08 11:28:19;;;;;;;27.67;12.17;;;-0.10;99.90;;;;;;5139894;27;20509;-68
2022/01/08 11:30:49;;;;;;;26.60;12.37;;;-0.10;99.90;;;;;;5158034;27;20246;-68
2022/01/08 11:33:31;;;;;;;31.77;12.53;;;0.10;99.90;;;;;;5140522;27;20153;-67
2022/01/08 11:36:02;;;;;;;31.10;12.60;;;0.10;99.90;;;;;;5159874;27;20167;-67
2022/01/08 11:38:38;;;;;;;30.47;13.27;;;-0.10;99.90;;;;;;5139952;27;20286;-67
2022/01/08 11:41:06;;;;;;;28.03;12.57;;;-0.10;99.90;;;;;;5137215;27;20152;-68
2022/01/08 11:43:37;;;;;;;29.13;11.97;;;-0.10;99.90;;;;;;5140799;27;20148;-67
2022/01/08 11:46:09;;;;;;;26.67;12.17;;;-0.10;99.90;;;;;;5140286;27;20140;-68
2022/01/08 11:48:49;;;;;;;31.07;11.87;;;-0.20;99.90;;;;;;5139766;27;20143;-68
2022/01/08 11:51:19;;;;;;;29.87;12.30;;;-0.10;99.90;;;;;;5159695;27;20156;-68
2022/01/08 11:53:56;;;;;;;27.20;11.77;;;-0.20;99.90;;;;;;5139882;27;20184;-69
2022/01/08 11:56:27;;;;;;;29.83;12.30;;;-0.20;99.90;;;;;;5159125;27;20108;-68
2022/01/08 11:59:15;;;;;;;29.73;11.67;;;-0.10;99.90;;;;;;5159205;27;20553;-68
2022/01/08 12:02:03;;;;;;;25.93;11.83;;;-0.10;99.90;;;;;;5140652;27;20171;-68
2022/01/08 12:04:33;;;;;;;25.97;12.03;;;-0.10;99.90;;;;;;5140032;27;20152;-68
2022/01/08 12:07:24;;;;;;;27.60;12.43;;;-0.10;99.90;;;;;;5140642;27;20151;-67
2022/01/08 12:10:23;;;;;;;27.87;12.90;;;-0.20;99.90;;;;;;5139319;27;20151;-67
2022/01/08 12:12:59;;;;;;;28.57;11.27;;;-0.20;99.90;;;;;;5139056;27;20188;-68
2022/01/08 12:15:42;;;;;;;25.30;12.57;;;-0.10;99.90;;;;;;5157786;27;20179;-67
2022/01/08 12:18:18;;;;;;;29.33;12.43;;;-0.10;99.90;;;;;;5158470;27;20134;-68
2022/01/08 12:20:57;;;;;;;26.50;12.37;;;-0.10;99.90;;;;;;5159526;27;20138;-67
2022/01/08 12:23:31;;;;;;;28.23;12.23;;;-0.10;99.90;;;;;;5140483;27;20147;-67
2022/01/08 12:26:19;;;;;;;27.13;11.97;;;-0.20;99.90;;;;;;5159515;27;20158;-67
2022/01/08 12:29:00;;;;;;;27.30;12.13;;;-0.30;99.90;;;;;;5138795;27;20184;-67
2022/01/08 12:31:49;;;;;;;29.30;12.93;;;-0.30;99.90;;;;;;5156982;27;20143;-67
2022/01/08 12:34:30;;;;;;;27.33;11.90;;;-0.30;99.90;;;;;;5139928;27;20287;-66
2022/01/08 12:37:13;;;;;;;26.73;12.30;;;-0.30;99.90;;;;;;5158768;27;20115;-67
2022/01/08 12:39:49;;;;;;;31.27;13.20;;;-0.30;99.90;;;;;;5140407;27;20159;-67
2022/01/08 12:42:26;;;;;;;30.00;13.00;;;-0.40;99.90;;;;;;5158874;27;20122;-67
2022/01/08 12:45:06;;;;;;;30.30;13.07;;;-0.40;99.90;;;;;;5139369;27;20227;-67
2022/01/08 12:47:43;;;;;;;30.50;12.73;;;-0.40;99.90;;;;;;5157058;27;20137;-68
2022/01/08 12:50:18;;;;;;;29.73;13.10;;;-0.30;99.90;;;;;;5157085;27;20144;-68
2022/01/08 12:53:06;;;;;;;29.87;13.93;;;-0.30;99.90;;;;;;5156884;27;20155;-67
2022/01/08 12:56:14;;;;;;;28.57;12.43;;;-0.20;99.90;;;;;;5144758;27;20495;-67
2022/01/08 12:58:51;;;;;;;32.40;12.70;;;-0.20;99.90;;;;;;5139430;27;20148;-67
2022/01/08 13:01:23;;;;;;;25.93;12.00;;;-0.20;99.90;;;;;;5156604;27;20163;-67
2022/01/08 13:03:55;;;;;;;29.23;12.80;;;-0.20;99.90;;;;;;5140694;27;20190;-67
2022/01/08 13:06:32;;;;;;;29.47;13.13;;;-0.20;99.90;;;;;;5156491;27;20184;-67